Main page
METAR-TAF:

METAR-TAF

Airports :

Cadjehoun Airport

Cotonou, Benin

latitude: 06-21N, longitude: 002-23E, elevation: 5 m

Current weather observation

The report was made 1 hour and 25 minutes ago, at 01:00 UTC
Wind 9 kt from the West/Southwest
Temperature 27°C
Humidity 89%
Pressure 1010 hPa
Visibility 10 km or more
Scattered clouds at a height of 1100 ft

METAR: DBBB 220100Z 24009KT 9999 SCT011 27/25 Q1010 NOSIG

Time: 03:25 (02:25 UTC)

Forecast

The report was made 3 hours and 25 minutes ago, at 23:00 UTC
Forecast valid from 22 at 00 UTC to 23 at 06 UTC
Wind 10 kt from the Southwest
Visibility 10 km or more
Scattered clouds at a height of 1200 ft
Temporary
from 22 at 04 UTC to 22 at 10 UTC
Wind 3 kt from variable directions
Visibility: 4000 m
Broken clouds at a height of 1000 ft
Few clouds at a height of 2300 ft, Cumulonimbus.
thunderstorm, rain

TAF: DBBB 212300Z 2200/2306 22010KT 9999 SCT012 TEMPO 2204/2210 VRB03KT 4000 TSRA BKN010 FEW023CB

Weather observations and forecasts of more than 4000 airports (METAR and TAF reports).

The available stations are represented by yellow and red dots on the map.

Hover mouse over dot to see the name of the station.

Then click to see weather observations and forecasts.

To change the map : click on the green buttons with a black cross to zoom in, on the green button with a dash to zoom out, or on the green arrows for adjacent maps.


METAR-TAF: